Peshtigo, WI (54157)

7:00 PM CST on December 04, 2016 (GMT -0600)
Tyco Fire Protection | | Change Station

Elev 617 ft 45.08 °N, 87.64 °W | Updated 4 minutes ago

Light Snow
Light Snow Mist
32.3 °F
Feels Like 32 °F
N
0.0
Wind Variable Wind from SSE
Gusts 19.0 mph

Today
High -- | Low -- °F
--% Chance of Precip.
Yesterday
High -- | Low -- °F
Precip. -- in
Pressure 29.90 in
Visibility 1.8 miles
Clouds Mostly Cloudy 400 ft
Overcast 1800 ft
Windchill 32 °F
Dew Point 31 °F
Humidity 96%
Rainfall 0.00 in
Snow Depth Not available.
7:13 AM 4:09 PM
Waxing Crescent, 27% visible
METAR KMNM 050056Z AUTO 20003KT 1 3/4SM -SN BR BKN004 OVC018 00/M01 A2983 RMK AO2 SLP123 P0003 T00001006 FZRANO
Pressure 29.90 in
Visibility 1.8 miles
Clouds Mostly Cloudy 400 ft
Overcast 1800 ft
Windchill 32 °F
Dew Point 31 °F
Humidity 96%
Rainfall 0.00 in
Snow Depth Not available.
7:13 AM 4:09 PM
Waxing Crescent, 27% visible
METAR KMNM 050056Z AUTO 20003KT 1 3/4SM -SN BR BKN004 OVC018 00/M01 A2983 RMK AO2 SLP123 P0003 T00001006 FZRANO

10-Day Weather Forecast

Almanac

Astronomy

Dec. 04, 2016 Rise Set
Actual Time
Civil Twilight
Nautical Twilight
Astronomical Twilight
Moon
Length of Visible Light
Length of Day
Tomorrow will be .
, % of the Moon is Illuminated

Today's Extremes

State Highs State Lows

Community

WunderPhotos

Upload Photos

1,955,729 photos uploaded!

WunderBlog® & News

Nearby

Air Quality

  Air Quality AQ Index Pollutant
Not available.

Snow Depth

Station Depth Elevation

Earthquake Activity

City Distance Mag. Time & Date
Minimum magnitude displayed is 2.5.

Coastal Water Temperatures

Place Temperature

Stations

Nearby Weather Stations

Station Location Temp. Windchill Dew Point Humidity Wind Precip. Elev Updated Type
                   

Watches & Warnings

There are currently no watches in effect.